Alapaha, Georgia
Current Conditions -  °F | °C
As of 4:50 PM on Monday 20 Oct 2014 (Local Time) from KTMA Reporting Station
Scattered Clouds Scattered Clouds  
Wind Chill: 78°   Ceiling: Unl
Heat Index: 79°   Visibility: 10mi
Dew Point: 57°   Wind: 8mph
Humidity: 48%   Direction: 240°WSW
Pressure: 29.98"   Gusts: NA
Location:  31.39°N, 83.22°W
Report Text: KTMA 202050Z AUTO 24007KT 10SM SCT046 SCT060 26/14 A2998 RMK AO2 T02560137 TSNO
Loading
Personal Weather Stations






























Interactive Weather Map
Tropical Storm Tracking
New forecast layout! Learn more

10-Day Weather Forecast

Advertisements
Track Severe Weather on mobile